Christialou — FI8820 — position and weather

sailwx.info

Track history (hours):
 
Tides and Currents Weather Stations Pressure Air Temp Water Temp Dewpoint Dewpoint Depression Visibility Wind Speed Wind Dir Waves Ship Positions

Christialou

Last reported at 2017-Nov-18 12:44 UTC. Time now 2017-Nov-22 14:57 UTC.
Position N 47°44' W 003°22'.

Length 9 m.

Type: Fishing. MMSI: 227629670.

Date/timePositionNaut miles runAvg speedWind from/ knotsBaromVisibWave heightAir tempDewpointWater temp
2017-Nov-18 12:44N 47°44' W 003°22'0 0.2
2017-Nov-18 12:30N 47°44' W 003°22'4 7.5
2017-Nov-18 12:00N 47°41' W 003°25'5 1.2
2017-Nov-18 08:08N 47°37' W 003°29'1 8.9
2017-Nov-18 07:59N 47°36' W 003°27'1 1.2
2017-Nov-18 07:27N 47°36' W 003°28'5 1.1
2017-Nov-18 03:21N 47°41' W 003°28'2 4.3
2017-Nov-18 03:00N 47°41' W 003°26'4 7.3
2017-Nov-18 02:29N 47°43' W 003°22'1 0.0
2017-Nov-17 11:48N 47°44' W 003°22'1 2.7
2017-Nov-17 11:30N 47°43' W 003°22'4 8.5
2017-Nov-17 11:00N 47°40' W 003°27'1 0.2
2017-Nov-17 03:30N 47°41' W 003°28'2 4.9
2017-Nov-17 03:00N 47°41' W 003°25'3 6.3
2017-Nov-17 02:29N 47°44' W 003°22'0 0.0
2017-Nov-16 13:42N 47°44' W 003°22'0 0.2
2017-Nov-16 13:30N 47°44' W 003°22'3 5.3
2017-Nov-16 13:00N 47°41' W 003°24'2 3.1
2017-Nov-16 12:30N 47°41' W 003°26'1 1.5
2017-Nov-16 11:48N 47°40' W 003°26'1 1.7
2017-Nov-16 11:29N 47°40' W 003°27'1 1.7
2017-Nov-16 10:59N 47°40' W 003°26'4 5.4
2017-Nov-16 10:16N 47°36' W 003°27'0 1.0
2017-Nov-16 09:56N 47°36' W 003°26'1 1.4
2017-Nov-16 09:29N 47°36' W 003°27'1 1.2
2017-Nov-16 08:47N 47°35' W 003°28'0 0.9
2017-Nov-16 08:30N 47°35' W 003°28'2 0.7
2017-Nov-16 05:42N 47°36' W 003°31'2 3.3
2017-Nov-16 05:12N 47°36' W 003°28'0 1.2
2017-Nov-16 05:00N 47°36' W 003°29'1 2.1
2017-Nov-16 04:26N 47°36' W 003°27'2 4.8
2017-Nov-16 04:00N 47°37' W 003°24'3 5.7
2017-Nov-16 03:30N 47°40' W 003°26'3 5.5
2017-Nov-16 02:59N 47°42' W 003°23'2 4.4
2017-Nov-16 02:29N 47°44' W 003°22'0 0.0
2017-Nov-15 13:15N 47°44' W 003°22'0 0.2
2017-Nov-15 13:00N 47°44' W 003°22'3 5.4
2017-Nov-15 12:30N 47°41' W 003°24'3 3.8
2017-Nov-15 11:50N 47°40' W 003°27'1 2.6
2017-Nov-15 11:24N 47°41' W 003°27'1 0.9
2017-Nov-15 10:11N 47°42' W 003°28'1 0.2
2017-Nov-15 04:25N 47°43' W 003°30'3 5.9
2017-Nov-15 03:59N 47°41' W 003°27'2 3.2
2017-Nov-15 03:31N 47°41' W 003°25'4 0.2
2017-Nov-14 12:41N 47°44' W 003°22'0 0.1
2017-Nov-14 12:18N 47°44' W 003°22'2 6.7
2017-Nov-14 12:00N 47°42' W 003°22'4 8.5
2017-Nov-14 11:30N 47°38' W 003°24'4 2.6
2017-Nov-14 10:03N 47°35' W 003°28'0 8.7
2017-Nov-14 10:00N 47°35' W 003°28'1 1.6
2017-Nov-14 09:06N 47°35' W 003°30'0 1.4
2017-Nov-14 09:00N 47°35' W 003°30'3 2.2
2017-Nov-14 07:49N 47°37' W 003°33'2 1.2
2017-Nov-14 06:23N 47°36' W 003°31'0 0.4
2017-Nov-14 05:57N 47°36' W 003°31'1 1.2
2017-Nov-14 05:29N 47°36' W 003°30'1 2.6
2017-Nov-14 05:00N 47°35' W 003°28'0 1.0
2017-Nov-14 04:30N 47°35' W 003°28'2 3.7
2017-Nov-14 03:59N 47°35' W 003°26'4 7.8
2017-Nov-14 03:30N 47°38' W 003°24'4 8.5
2017-Nov-14 03:00N 47°43' W 003°22'  
2017-Nov-10 11:41N 47°44' W 003°22'0 0.2
2017-Nov-10 11:29N 47°44' W 003°22'3 5.6
2017-Nov-10 11:00N 47°41' W 003°24'3 5.5
2017-Nov-10 10:30N 47°42' W 003°28'0 0.7
2017-Nov-10 09:52N 47°42' W 003°29'1 2.8
2017-Nov-10 09:29N 47°42' W 003°29'2 0.8
2017-Nov-10 07:02N 47°41' W 003°32'0 2.6
2017-Nov-10 06:56N 47°41' W 003°31'1 0.4
2017-Nov-10 04:45N 47°41' W 003°30'1 3.3
2017-Nov-10 04:21N 47°42' W 003°28'1 1.5
2017-Nov-10 03:59N 47°41' W 003°28'2 2.8
2017-Nov-10 03:17N 47°42' W 003°30'2 7.6
2017-Nov-10 03:00N 47°41' W 003°27'4 7.3
2017-Nov-10 02:30N 47°42' W 003°22'1 0.1
2017-Nov-09 12:13N 47°44' W 003°22'0 0.2
2017-Nov-09 12:00N 47°44' W 003°22'3 6.5
2017-Nov-09 11:29N 47°41' W 003°25'3 0.5
2017-Nov-09 04:39N 47°41' W 003°30'0 1.1
2017-Nov-09 04:29N 47°41' W 003°29'3 7.0
2017-Nov-09 04:00N 47°41' W 003°24'3 6.3
2017-Nov-09 03:30N 47°44' W 003°22'0 0.0
2017-Nov-08 16:31N 47°44' W 003°22'0 0.4
2017-Nov-08 16:29N 47°44' W 003°22'  
Track history (hours):
 
Tides and Currents Weather Stations Pressure Air Temp Water Temp Dewpoint Dewpoint Depression Visibility Wind Speed Wind Dir Waves Ship Positions

Christialou

Last reported at 2017-Nov-18 12:44 UTC. Time now 2017-Nov-22 14:57 UTC.
Position N 47°44' W 003°22'.

Length 9 m.

Type: Fishing. MMSI: 227629670.

Date/timePositionNaut miles runAvg speedWind from/ knotsBaromVisibWave heightAir tempDewpointWater temp
2017-Nov-18 12:44N 47°44' W 003°22'0 0.2
2017-Nov-18 12:30N 47°44' W 003°22'4 7.5
2017-Nov-18 12:00N 47°41' W 003°25'5 1.2
2017-Nov-18 08:08N 47°37' W 003°29'1 8.9
2017-Nov-18 07:59N 47°36' W 003°27'1 1.2
2017-Nov-18 07:27N 47°36' W 003°28'5 1.1
2017-Nov-18 03:21N 47°41' W 003°28'2 4.3
2017-Nov-18 03:00N 47°41' W 003°26'4 7.3
2017-Nov-18 02:29N 47°43' W 003°22'1 0.0
2017-Nov-17 11:48N 47°44' W 003°22'1 2.7
2017-Nov-17 11:30N 47°43' W 003°22'4 8.5
2017-Nov-17 11:00N 47°40' W 003°27'1 0.2
2017-Nov-17 03:30N 47°41' W 003°28'2 4.9
2017-Nov-17 03:00N 47°41' W 003°25'3 6.3
2017-Nov-17 02:29N 47°44' W 003°22'0 0.0
2017-Nov-16 13:42N 47°44' W 003°22'0 0.2
2017-Nov-16 13:30N 47°44' W 003°22'3 5.3
2017-Nov-16 13:00N 47°41' W 003°24'2 3.1
2017-Nov-16 12:30N 47°41' W 003°26'1 1.5
2017-Nov-16 11:48N 47°40' W 003°26'1 1.7
2017-Nov-16 11:29N 47°40' W 003°27'1 1.7
2017-Nov-16 10:59N 47°40' W 003°26'4 5.4
2017-Nov-16 10:16N 47°36' W 003°27'0 1.0
2017-Nov-16 09:56N 47°36' W 003°26'1 1.4
2017-Nov-16 09:29N 47°36' W 003°27'1 1.2
2017-Nov-16 08:47N 47°35' W 003°28'0 0.9
2017-Nov-16 08:30N 47°35' W 003°28'2 0.7
2017-Nov-16 05:42N 47°36' W 003°31'2 3.3
2017-Nov-16 05:12N 47°36' W 003°28'0 1.2
2017-Nov-16 05:00N 47°36' W 003°29'1 2.1
2017-Nov-16 04:26N 47°36' W 003°27'2 4.8
2017-Nov-16 04:00N 47°37' W 003°24'3 5.7
2017-Nov-16 03:30N 47°40' W 003°26'3 5.5
2017-Nov-16 02:59N 47°42' W 003°23'2 4.4
2017-Nov-16 02:29N 47°44' W 003°22'0 0.0
2017-Nov-15 13:15N 47°44' W 003°22'0 0.2
2017-Nov-15 13:00N 47°44' W 003°22'3 5.4
2017-Nov-15 12:30N 47°41' W 003°24'3 3.8
2017-Nov-15 11:50N 47°40' W 003°27'1 2.6
2017-Nov-15 11:24N 47°41' W 003°27'1 0.9
2017-Nov-15 10:11N 47°42' W 003°28'1 0.2
2017-Nov-15 04:25N 47°43' W 003°30'3 5.9
2017-Nov-15 03:59N 47°41' W 003°27'2 3.2
2017-Nov-15 03:31N 47°41' W 003°25'4 0.2
2017-Nov-14 12:41N 47°44' W 003°22'0 0.1
2017-Nov-14 12:18N 47°44' W 003°22'2 6.7
2017-Nov-14 12:00N 47°42' W 003°22'4 8.5
2017-Nov-14 11:30N 47°38' W 003°24'4 2.6
2017-Nov-14 10:03N 47°35' W 003°28'0 8.7
2017-Nov-14 10:00N 47°35' W 003°28'1 1.6
2017-Nov-14 09:06N 47°35' W 003°30'0 1.4
2017-Nov-14 09:00N 47°35' W 003°30'3 2.2
2017-Nov-14 07:49N 47°37' W 003°33'2 1.2
2017-Nov-14 06:23N 47°36' W 003°31'0 0.4
2017-Nov-14 05:57N 47°36' W 003°31'1 1.2
2017-Nov-14 05:29N 47°36' W 003°30'1 2.6
2017-Nov-14 05:00N 47°35' W 003°28'0 1.0
2017-Nov-14 04:30N 47°35' W 003°28'2 3.7
2017-Nov-14 03:59N 47°35' W 003°26'4 7.8
2017-Nov-14 03:30N 47°38' W 003°24'4 8.5
2017-Nov-14 03:00N 47°43' W 003°22'  
2017-Nov-10 11:41N 47°44' W 003°22'0 0.2
2017-Nov-10 11:29N 47°44' W 003°22'3 5.6
2017-Nov-10 11:00N 47°41' W 003°24'3 5.5
2017-Nov-10 10:30N 47°42' W 003°28'0 0.7
2017-Nov-10 09:52N 47°42' W 003°29'1 2.8
2017-Nov-10 09:29N 47°42' W 003°29'2 0.8
2017-Nov-10 07:02N 47°41' W 003°32'0 2.6
2017-Nov-10 06:56N 47°41' W 003°31'1 0.4
2017-Nov-10 04:45N 47°41' W 003°30'1 3.3
2017-Nov-10 04:21N 47°42' W 003°28'1 1.5
2017-Nov-10 03:59N 47°41' W 003°28'2 2.8
2017-Nov-10 03:17N 47°42' W 003°30'2 7.6
2017-Nov-10 03:00N 47°41' W 003°27'4 7.3
2017-Nov-10 02:30N 47°42' W 003°22'1 0.1
2017-Nov-09 12:13N 47°44' W 003°22'0 0.2
2017-Nov-09 12:00N 47°44' W 003°22'3 6.5
2017-Nov-09 11:29N 47°41' W 003°25'3 0.5
2017-Nov-09 04:39N 47°41' W 003°30'0 1.1
2017-Nov-09 04:29N 47°41' W 003°29'3 7.0
2017-Nov-09 04:00N 47°41' W 003°24'3 6.3
2017-Nov-09 03:30N 47°44' W 003°22'0 0.0
2017-Nov-08 16:31N 47°44' W 003°22'0 0.4
2017-Nov-08 16:29N 47°44' W 003°22'  

Dump ship's entire track history